ROMMA est une association bénévole à but non lucratif. Votre soutien est indispensable : ADHERER à ROMMA ou FAIRE un DON

Engins - (38, Isère)

Vercors (906 m)   Longitude: 05° 37' E   Latitude: 45° 11' N Station partenaire n°139
 

Détail journalier du     <<     >>

Température Precipitation Humidité Vent Dir Rafale Dir. rafale Ensol.
Heure (°C) (mm) (%) (km/h) (km/h) (min)
01:00 8.40917SSO19SSO0
02:00 8.30893ONO13SSO0
03:00 8.80884O13OSO0
04:00 8.20914SSO16SSE0
05:00 8.20904OSO10SO0
06:00 8.40884SSO11OSO0
07:00 7.70893NO10NNO0
08:00 7.70876NO18NNO0
09:00 8.40863SSE13NO15
10:00 10.00825SSE11SSO60
11:00 12.30735S16N60
12:00 13.40734ENE15ENE60
13:00 13.90645ENE19N55
14:00 13.80628N27N60
15:00 14.90596NNE21N60
16:00 14.405412N29NNO60
17:00 13.705613N26NNO55
18:00 11.60668NNO24N0
19:00 10.50733NNO15N0
20:00 10.60686NO18NNO0
21:00 9.70737ONO18ONO0
22:00 9.10734SSO15SSO0
23:00 8.10776SSO11OSO0
minuit 8.50787SSO16O0

Graphique du 10-10-2019

 

Serveur OMMA